Wilmington International Airport
KILM : now visible

Airfield :











YOU CAN JOIN US ON...

 
LOGIN :

Register | Disclaimer

   EN    FR    IT 

 









Legend :    VFR   Marginal VFR   IFR   Intensive IFR   Very Intensive IFR
Visi :
Ceiling :
>= 8 km
>= 3000ft
5 to 8 km
1000 to 3000 ft
1500m to 5 km
500 to 1000 ft
800 to 1500m
200 to 500 ft
< 800m
< 200 ft
Symbols :   Thunderstorms  Fog  Heavy snow  Heavy precipitations  Wind > 20 kt






- Airport Elevation : 32 ft
- IATA code : ILM


KILM - Wilmington International

CURRENT METAR :
  • 041553Z 10SM CLR 19/02 A3000 RMK AO2 SLP157 T01890022

EXPIRED METARs :
  • 041453Z 01009KT 10SM CLR 18/04 A3000 RMK AO2 SLP158 T01830039 51015
  • 041353Z 02007KT 10SM CLR 16/05 A2999 RMK AO2 SLP155 T01610050

TAF KILM
Valid from the 04 at 12:00 until the 05 at 12:00 UTC


041120Z 0412/0512 36005KT P6SM FEW250
FM041900 04008KT P6SM FEW250
FM050900 03004KT P6SM FEW250



MET'MAP, your aeronautical weather chart ! - Copyright ORBIFLY December 2007 - Disclaimer

ORBIFLY MET'MAP TEAM :

Programming & Development : Alexandra Zaïnal
Concept & original design : Baudouin d'Aumeries
Assistance for programming : Marc-Olivier Méhu
Technical & hardware support : Manuel Goepfert

Contact : metmap@orbifly.com




SOURCES & CREDITS :

   NOAA       Earth
Advisory